createdAt,value
2018-02-17T00:33:47.255Z,22.9
2018-02-17T00:48:47.258Z,20.9
2018-02-17T01:23:47.335Z,21.3
2018-02-17T01:38:47.194Z,24.4
2018-02-17T01:53:47.194Z,22.8
2018-02-17T02:28:47.221Z,25.6
2018-02-17T02:43:47.366Z,26.5
2018-02-17T03:18:47.687Z,25
2018-02-17T03:33:52.797Z,23.6
2018-02-17T03:48:57.947Z,28.4
2018-02-17T04:08:57.973Z,26.6
2018-02-17T04:23:57.776Z,25.8
2018-02-17T04:38:57.972Z,23.6
2018-02-17T04:53:58.012Z,22.6
2018-02-17T05:43:57.986Z,32.2
2018-02-17T06:03:58.034Z,31.3
2018-02-17T06:18:58.007Z,32.3
2018-02-17T06:33:58.015Z,26.5
2018-02-17T06:48:57.831Z,28.6
2018-02-17T07:08:57.826Z,30.6
2018-02-17T07:23:58.029Z,28.7
2018-02-17T07:38:58.027Z,31.6
2018-02-17T07:58:57.873Z,29.2
2018-02-17T08:13:58.159Z,30.6
2018-02-17T08:29:02.864Z,27.9
2018-02-17T09:04:02.844Z,31.9
2018-02-17T09:19:02.901Z,33.8
2018-02-17T09:34:04.036Z,33.4
2018-02-17T09:54:02.900Z,38.2
2018-02-17T10:09:03.045Z,32
2018-02-17T10:24:03.057Z,35.2
2018-02-17T10:59:03.093Z,35.6
2018-02-17T11:14:02.940Z,31.6
2018-02-17T11:29:03.065Z,31.1
2018-02-17T11:49:02.949Z,32.9
2018-02-17T12:04:05.544Z,28.3
2018-02-17T12:19:02.951Z,30.3
2018-02-17T12:34:02.975Z,32.9
2018-02-17T12:54:03.007Z,34.2
2018-02-17T13:09:03.021Z,32.9
2018-02-17T13:24:06.761Z,38.5
2018-02-17T13:44:06.793Z,39.4
2018-02-17T13:59:06.780Z,40.4
2018-02-17T14:29:06.812Z,38.7
2018-02-17T14:49:07.012Z,38
2018-02-17T15:04:07.018Z,41.4
2018-02-17T15:19:06.869Z,41.5
2018-02-17T15:39:06.826Z,42.3
2018-02-17T15:54:07.617Z,37.4
2018-02-17T16:44:06.905Z,37.4
2018-02-17T16:59:07.080Z,38.6
2018-02-17T17:14:06.884Z,35.6
2018-02-17T17:34:06.893Z,46.3
2018-02-17T17:49:06.873Z,37.9
2018-02-17T18:04:06.943Z,33.5
2018-02-17T18:54:08.288Z,28
2018-02-17T19:09:08.301Z,29.1
2018-02-17T19:29:08.515Z,29.5
2018-02-17T19:59:08.531Z,13.4
2018-02-17T20:14:08.611Z,12.9
2018-02-17T20:34:08.612Z,13.9
2018-02-17T20:49:08.597Z,13.4
2018-02-17T21:04:08.839Z,12.9
2018-02-17T21:24:09.194Z,12.8
2018-02-17T21:39:08.849Z,13.7
2018-02-17T21:54:08.908Z,14.5
2018-02-17T22:09:08.928Z,16.4
2018-02-17T22:29:08.994Z,17.7
2018-02-17T22:44:09.026Z,22
2018-02-17T22:59:08.984Z,17
2018-02-17T23:19:09.238Z,18.2
2018-02-17T23:34:09.037Z,18.8
2018-02-17T23:49:09.029Z,20.7
